Terminal Aerodrome Forecast
Issued by NWS

Home | Current Version | Previous Version | Text Only | Print | Product List | Glossary On
Versions: 1 2 3 4 5 6 7 8 9 10 11 12 13 14 15 16 17 18 19
000
FTUS42 KRAH 271720
TAFRWI
TAF
KRWI 271720Z 2718/2818 24007KT P6SM SCT060
     FM272000 24007KT P6SM BKN060
      TEMPO 2721/2801 VRB20G40KT 2SM TSRA BKN025CB
     FM280500 VRB03KT P6SM SCT250=

USA.gov is the U.S. government's official web portal to all federal, state and local government web resources and services.